sensor_id;sensor_type;location;lat;lon;timestamp;P1;durP1;ratioP1;P2;durP2;ratioP2
18503;SDS011;9381;54.244;10.074;2023-11-18T00:03:59;14.57;;;11.67;;
18503;SDS011;9381;54.244;10.074;2023-11-18T00:09:00;13.23;;;10.37;;
18503;SDS011;9381;54.244;10.074;2023-11-18T00:14:00;15.30;;;11.80;;
18503;SDS011;9381;54.244;10.074;2023-11-18T00:19:00;17.63;;;12.05;;
18503;SDS011;9381;54.244;10.074;2023-11-18T00:24:01;15.50;;;11.77;;
18503;SDS011;9381;54.244;10.074;2023-11-18T00:29:02;15.27;;;11.90;;
18503;SDS011;9381;54.244;10.074;2023-11-18T00:34:02;15.17;;;11.90;;
18503;SDS011;9381;54.244;10.074;2023-11-18T00:39:02;15.33;;;11.33;;
18503;SDS011;9381;54.244;10.074;2023-11-18T00:44:04;15.63;;;11.67;;
18503;SDS011;9381;54.244;10.074;2023-11-18T00:49:04;17.60;;;13.23;;
18503;SDS011;9381;54.244;10.074;2023-11-18T00:54:05;16.90;;;12.73;;
18503;SDS011;9381;54.244;10.074;2023-11-18T00:59:05;15.80;;;12.37;;
18503;SDS011;9381;54.244;10.074;2023-11-18T01:04:06;15.30;;;11.97;;
18503;SDS011;9381;54.244;10.074;2023-11-18T01:09:06;16.98;;;12.70;;
18503;SDS011;9381;54.244;10.074;2023-11-18T01:14:09;16.60;;;12.57;;
18503;SDS011;9381;54.244;10.074;2023-11-18T01:19:09;16.17;;;12.10;;
18503;SDS011;9381;54.244;10.074;2023-11-18T01:24:10;15.90;;;12.23;;
18503;SDS011;9381;54.244;10.074;2023-11-18T01:29:11;18.53;;;14.17;;
18503;SDS011;9381;54.244;10.074;2023-11-18T01:34:11;17.48;;;13.27;;
18503;SDS011;9381;54.244;10.074;2023-11-18T01:39:12;16.67;;;12.93;;
18503;SDS011;9381;54.244;10.074;2023-11-18T01:44:13;21.70;;;14.27;;
18503;SDS011;9381;54.244;10.074;2023-11-18T01:49:17;21.07;;;14.07;;
18503;SDS011;9381;54.244;10.074;2023-11-18T01:54:18;21.03;;;14.20;;
18503;SDS011;9381;54.244;10.074;2023-11-18T01:59:19;19.00;;;13.93;;
18503;SDS011;9381;54.244;10.074;2023-11-18T02:04:19;18.17;;;13.53;;
18503;SDS011;9381;54.244;10.074;2023-11-18T02:09:20;17.63;;;12.90;;
18503;SDS011;9381;54.244;10.074;2023-11-18T02:14:28;32.93;;;13.10;;
18503;SDS011;9381;54.244;10.074;2023-11-18T02:19:31;29.37;;;12.37;;
18503;SDS011;9381;54.244;10.074;2023-11-18T02:24:34;46.50;;;13.47;;
18503;SDS011;9381;54.244;10.074;2023-11-18T02:29:38;15.87;;;10.63;;
18503;SDS011;9381;54.244;10.074;2023-11-18T02:34:45;246.63;;;21.00;;
18503;SDS011;9381;54.244;10.074;2023-11-18T02:39:52;452.53;;;30.10;;
18503;SDS011;9381;54.244;10.074;2023-11-18T02:44:57;337.57;;;27.13;;
18503;SDS011;9381;54.244;10.074;2023-11-18T02:49:59;372.47;;;28.00;;
18503;SDS011;9381;54.244;10.074;2023-11-18T02:55:10;24.07;;;10.60;;
18503;SDS011;9381;54.244;10.074;2023-11-18T03:00:11;296.03;;;23.27;;
18503;SDS011;9381;54.244;10.074;2023-11-18T03:05:18;12.03;;;9.20;;
18503;SDS011;9381;54.244;10.074;2023-11-18T03:10:19;63.47;;;11.93;;
18503;SDS011;9381;54.244;10.074;2023-11-18T03:15:23;162.73;;;17.30;;
18503;SDS011;9381;54.244;10.074;2023-11-18T03:20:23;206.00;;;19.93;;
18503;SDS011;9381;54.244;10.074;2023-11-18T03:25:24;26.00;;;10.77;;
18503;SDS011;9381;54.244;10.074;2023-11-18T03:30:24;178.87;;;17.40;;
18503;SDS011;9381;54.244;10.074;2023-11-18T03:35:24;176.63;;;15.70;;
18503;SDS011;9381;54.244;10.074;2023-11-18T03:40:24;82.13;;;10.93;;
18503;SDS011;9381;54.244;10.074;2023-11-18T03:45:25;67.40;;;11.53;;
18503;SDS011;9381;54.244;10.074;2023-11-18T03:50:25;70.90;;;12.73;;
18503;SDS011;9381;54.244;10.074;2023-11-18T03:55:25;77.93;;;12.70;;
18503;SDS011;9381;54.244;10.074;2023-11-18T04:00:26;47.17;;;9.83;;
18503;SDS011;9381;54.244;10.074;2023-11-18T04:05:29;59.97;;;11.13;;
18503;SDS011;9381;54.244;10.074;2023-11-18T04:10:30;66.93;;;12.03;;
18503;SDS011;9381;54.244;10.074;2023-11-18T04:15:30;72.60;;;12.65;;
18503;SDS011;9381;54.244;10.074;2023-11-18T04:20:31;20.63;;;9.77;;
18503;SDS011;9381;54.244;10.074;2023-11-18T04:25:32;90.67;;;13.83;;
18503;SDS011;9381;54.244;10.074;2023-11-18T04:30:33;93.10;;;13.38;;
18503;SDS011;9381;54.244;10.074;2023-11-18T04:35:33;28.17;;;11.00;;
18503;SDS011;9381;54.244;10.074;2023-11-18T04:40:34;45.30;;;11.37;;
18503;SDS011;9381;54.244;10.074;2023-11-18T04:45:35;26.58;;;10.48;;
18503;SDS011;9381;54.244;10.074;2023-11-18T04:50:35;30.38;;;10.25;;
18503;SDS011;9381;54.244;10.074;2023-11-18T04:55:35;21.37;;;9.77;;
18503;SDS011;9381;54.244;10.074;2023-11-18T05:00:36;39.53;;;11.63;;
18503;SDS011;9381;54.244;10.074;2023-11-18T05:05:38;40.73;;;11.43;;
18503;SDS011;9381;54.244;10.074;2023-11-18T05:10:39;19.40;;;10.03;;
18503;SDS011;9381;54.244;10.074;2023-11-18T05:15:39;13.40;;;9.50;;
18503;SDS011;9381;54.244;10.074;2023-11-18T05:20:39;15.13;;;9.65;;
18503;SDS011;9381;54.244;10.074;2023-11-18T05:25:43;19.00;;;10.03;;
18503;SDS011;9381;54.244;10.074;2023-11-18T05:30:43;40.60;;;12.20;;
18503;SDS011;9381;54.244;10.074;2023-11-18T05:35:44;16.73;;;10.43;;
18503;SDS011;9381;54.244;10.074;2023-11-18T05:40:51;20.67;;;10.67;;
18503;SDS011;9381;54.244;10.074;2023-11-18T05:45:57;14.63;;;9.63;;
18503;SDS011;9381;54.244;10.074;2023-11-18T05:51:20;19.97;;;12.17;;
18503;SDS011;9381;54.244;10.074;2023-11-18T05:56:25;49.83;;;14.83;;
18503;SDS011;9381;54.244;10.074;2023-11-18T06:01:26;51.27;;;15.37;;
18503;SDS011;9381;54.244;10.074;2023-11-18T06:06:27;33.73;;;14.10;;
18503;SDS011;9381;54.244;10.074;2023-11-18T06:11:27;53.63;;;15.77;;
18503;SDS011;9381;54.244;10.074;2023-11-18T06:16:29;43.00;;;13.47;;
18503;SDS011;9381;54.244;10.074;2023-11-18T06:21:29;77.93;;;13.80;;
18503;SDS011;9381;54.244;10.074;2023-11-18T06:26:30;90.77;;;15.07;;
18503;SDS011;9381;54.244;10.074;2023-11-18T06:31:30;121.90;;;15.40;;
18503;SDS011;9381;54.244;10.074;2023-11-18T06:36:31;82.60;;;13.70;;
18503;SDS011;9381;54.244;10.074;2023-11-18T06:41:31;28.13;;;11.70;;
18503;SDS011;9381;54.244;10.074;2023-11-18T06:46:35;54.87;;;11.73;;
18503;SDS011;9381;54.244;10.074;2023-11-18T06:51:36;120.93;;;14.90;;
18503;SDS011;9381;54.244;10.074;2023-11-18T06:56:38;123.63;;;16.23;;
18503;SDS011;9381;54.244;10.074;2023-11-18T07:01:43;200.87;;;18.40;;
18503;SDS011;9381;54.244;10.074;2023-11-18T07:06:44;163.93;;;17.20;;
18503;SDS011;9381;54.244;10.074;2023-11-18T07:11:44;124.37;;;16.23;;
18503;SDS011;9381;54.244;10.074;2023-11-18T07:16:46;157.87;;;16.73;;
18503;SDS011;9381;54.244;10.074;2023-11-18T07:21:48;153.33;;;16.40;;
18503;SDS011;9381;54.244;10.074;2023-11-18T07:26:49;162.77;;;16.90;;
18503;SDS011;9381;54.244;10.074;2023-11-18T07:31:50;44.97;;;11.83;;
18503;SDS011;9381;54.244;10.074;2023-11-18T07:36:51;180.82;;;18.45;;
18503;SDS011;9381;54.244;10.074;2023-11-18T07:41:52;54.03;;;11.53;;
18503;SDS011;9381;54.244;10.074;2023-11-18T07:46:52;87.93;;;12.03;;
18503;SDS011;9381;54.244;10.074;2023-11-18T07:51:53;63.83;;;11.03;;
18503;SDS011;9381;54.244;10.074;2023-11-18T07:56:53;11.27;;;7.93;;
18503;SDS011;9381;54.244;10.074;2023-11-18T08:01:54;57.70;;;10.07;;
18503;SDS011;9381;54.244;10.074;2023-11-18T08:06:54;87.73;;;12.43;;
18503;SDS011;9381;54.244;10.074;2023-11-18T08:11:55;62.97;;;10.43;;
18503;SDS011;9381;54.244;10.074;2023-11-18T08:16:55;36.50;;;10.50;;
18503;SDS011;9381;54.244;10.074;2023-11-18T08:21:56;47.90;;;9.90;;
18503;SDS011;9381;54.244;10.074;2023-11-18T08:26:58;80.73;;;12.10;;
18503;SDS011;9381;54.244;10.074;2023-11-18T08:31:58;15.75;;;8.77;;
18503;SDS011;9381;54.244;10.074;2023-11-18T08:36:58;103.15;;;13.00;;
18503;SDS011;9381;54.244;10.074;2023-11-18T08:41:59;203.43;;;18.57;;
18503;SDS011;9381;54.244;10.074;2023-11-18T08:47:00;262.53;;;20.07;;
18503;SDS011;9381;54.244;10.074;2023-11-18T08:52:01;155.17;;;16.23;;
18503;SDS011;9381;54.244;10.074;2023-11-18T08:57:05;64.90;;;12.17;;
18503;SDS011;9381;54.244;10.074;2023-11-18T09:02:23;127.13;;;15.13;;
18503;SDS011;9381;54.244;10.074;2023-11-18T09:07:24;64.00;;;12.63;;
18503;SDS011;9381;54.244;10.074;2023-11-18T09:12:24;47.70;;;11.77;;
18503;SDS011;9381;54.244;10.074;2023-11-18T09:17:24;35.90;;;12.03;;
18503;SDS011;9381;54.244;10.074;2023-11-18T09:22:27;30.17;;;13.23;;
18503;SDS011;9381;54.244;10.074;2023-11-18T09:27:28;22.93;;;11.10;;
18503;SDS011;9381;54.244;10.074;2023-11-18T09:32:29;18.50;;;11.87;;
18503;SDS011;9381;54.244;10.074;2023-11-18T09:37:30;17.67;;;12.03;;
18503;SDS011;9381;54.244;10.074;2023-11-18T09:42:30;20.23;;;11.97;;
18503;SDS011;9381;54.244;10.074;2023-11-18T09:47:33;16.47;;;11.60;;
18503;SDS011;9381;54.244;10.074;2023-11-18T09:52:42;11.13;;;9.20;;
18503;SDS011;9381;54.244;10.074;2023-11-18T09:57:52;10.60;;;8.37;;
18503;SDS011;9381;54.244;10.074;2023-11-18T10:02:59;8.70;;;7.30;;
18503;SDS011;9381;54.244;10.074;2023-11-18T10:08:03;8.77;;;7.00;;
18503;SDS011;9381;54.244;10.074;2023-11-18T10:13:05;8.10;;;6.77;;
18503;SDS011;9381;54.244;10.074;2023-11-18T10:18:08;9.20;;;8.00;;
18503;SDS011;9381;54.244;10.074;2023-11-18T10:23:10;9.63;;;7.83;;
18503;SDS011;9381;54.244;10.074;2023-11-18T10:33:27;7.27;;;6.40;;
18503;SDS011;9381;54.244;10.074;2023-11-18T10:38:31;5.87;;;4.80;;
18503;SDS011;9381;54.244;10.074;2023-11-18T10:43:32;5.30;;;4.80;;
18503;SDS011;9381;54.244;10.074;2023-11-18T10:48:35;4.30;;;3.90;;
18503;SDS011;9381;54.244;10.074;2023-11-18T10:53:36;4.03;;;3.63;;
18503;SDS011;9381;54.244;10.074;2023-11-18T10:58:37;3.33;;;3.03;;
18503;SDS011;9381;54.244;10.074;2023-11-18T11:03:53;3.70;;;3.40;;
18503;SDS011;9381;54.244;10.074;2023-11-18T11:08:57;2.40;;;2.20;;
18503;SDS011;9381;54.244;10.074;2023-11-18T11:14:01;4.70;;;3.23;;
18503;SDS011;9381;54.244;10.074;2023-11-18T11:19:03;2.73;;;2.53;;
18503;SDS011;9381;54.244;10.074;2023-11-18T11:24:11;3.87;;;3.47;;
18503;SDS011;9381;54.244;10.074;2023-11-18T11:29:30;5.53;;;4.30;;
18503;SDS011;9381;54.244;10.074;2023-11-18T11:34:36;5.17;;;4.67;;
18503;SDS011;9381;54.244;10.074;2023-11-18T11:39:42;5.50;;;4.90;;
18503;SDS011;9381;54.244;10.074;2023-11-18T11:44:47;5.47;;;4.40;;
18503;SDS011;9381;54.244;10.074;2023-11-18T11:49:57;5.83;;;5.00;;
18503;SDS011;9381;54.244;10.074;2023-11-18T12:00:47;6.90;;;5.70;;
18503;SDS011;9381;54.244;10.074;2023-11-18T12:05:54;6.73;;;5.70;;
18503;SDS011;9381;54.244;10.074;2023-11-18T12:10:56;9.27;;;5.40;;
18503;SDS011;9381;54.244;10.074;2023-11-18T12:15:56;6.60;;;5.20;;
18503;SDS011;9381;54.244;10.074;2023-11-18T12:20:57;7.70;;;6.03;;
18503;SDS011;9381;54.244;10.074;2023-11-18T12:26:02;5.73;;;5.23;;
18503;SDS011;9381;54.244;10.074;2023-11-18T12:31:38;6.37;;;5.77;;
18503;SDS011;9381;54.244;10.074;2023-11-18T12:36:54;7.37;;;5.10;;
18503;SDS011;9381;54.244;10.074;2023-11-18T12:42:07;5.57;;;5.07;;
18503;SDS011;9381;54.244;10.074;2023-11-18T12:47:11;7.47;;;5.80;;
18503;SDS011;9381;54.244;10.074;2023-11-18T12:52:18;7.70;;;5.73;;
18503;SDS011;9381;54.244;10.074;2023-11-18T12:57:22;6.03;;;5.37;;
18503;SDS011;9381;54.244;10.074;2023-11-18T13:02:31;6.60;;;5.47;;
18503;SDS011;9381;54.244;10.074;2023-11-18T13:07:32;6.07;;;4.93;;
18503;SDS011;9381;54.244;10.074;2023-11-18T13:12:32;7.50;;;5.20;;
18503;SDS011;9381;54.244;10.074;2023-11-18T13:17:34;5.70;;;5.00;;
18503;SDS011;9381;54.244;10.074;2023-11-18T13:22:34;5.03;;;4.25;;
18503;SDS011;9381;54.244;10.074;2023-11-18T13:27:35;7.77;;;4.60;;
18503;SDS011;9381;54.244;10.074;2023-11-18T13:32:36;5.03;;;4.53;;
18503;SDS011;9381;54.244;10.074;2023-11-18T13:37:36;5.63;;;4.40;;
18503;SDS011;9381;54.244;10.074;2023-11-18T13:42:36;6.40;;;4.10;;
18503;SDS011;9381;54.244;10.074;2023-11-18T13:47:39;4.20;;;3.77;;
18503;SDS011;9381;54.244;10.074;2023-11-18T13:52:39;5.95;;;4.50;;
18503;SDS011;9381;54.244;10.074;2023-11-18T13:57:39;5.00;;;4.50;;
18503;SDS011;9381;54.244;10.074;2023-11-18T14:02:40;6.40;;;4.90;;
18503;SDS011;9381;54.244;10.074;2023-11-18T14:07:40;6.17;;;5.30;;
18503;SDS011;9381;54.244;10.074;2023-11-18T14:12:57;6.25;;;5.20;;
18503;SDS011;9381;54.244;10.074;2023-11-18T14:18:03;7.40;;;5.70;;
18503;SDS011;9381;54.244;10.074;2023-11-18T14:23:04;7.10;;;5.60;;
18503;SDS011;9381;54.244;10.074;2023-11-18T14:28:04;6.80;;;6.10;;
18503;SDS011;9381;54.244;10.074;2023-11-18T14:33:04;7.78;;;5.70;;
18503;SDS011;9381;54.244;10.074;2023-11-18T14:38:04;11.85;;;6.53;;
18503;SDS011;9381;54.244;10.074;2023-11-18T14:43:05;7.23;;;5.50;;
18503;SDS011;9381;54.244;10.074;2023-11-18T14:48:07;9.33;;;5.80;;
18503;SDS011;9381;54.244;10.074;2023-11-18T14:53:07;7.33;;;5.37;;
18503;SDS011;9381;54.244;10.074;2023-11-18T14:58:07;6.43;;;5.57;;
18503;SDS011;9381;54.244;10.074;2023-11-18T15:03:08;7.53;;;5.72;;
18503;SDS011;9381;54.244;10.074;2023-11-18T15:08:08;7.73;;;5.60;;
18503;SDS011;9381;54.244;10.074;2023-11-18T15:13:11;6.73;;;5.70;;
18503;SDS011;9381;54.244;10.074;2023-11-18T15:18:15;7.40;;;5.47;;
18503;SDS011;9381;54.244;10.074;2023-11-18T15:23:18;7.60;;;6.47;;
18503;SDS011;9381;54.244;10.074;2023-11-18T15:28:25;8.80;;;5.80;;
18503;SDS011;9381;54.244;10.074;2023-11-18T15:33:26;7.57;;;5.88;;
18503;SDS011;9381;54.244;10.074;2023-11-18T15:38:26;7.23;;;6.07;;
18503;SDS011;9381;54.244;10.074;2023-11-18T15:43:26;10.98;;;5.97;;
18503;SDS011;9381;54.244;10.074;2023-11-18T15:48:28;7.53;;;5.50;;
18503;SDS011;9381;54.244;10.074;2023-11-18T15:53:29;5.57;;;4.97;;
18503;SDS011;9381;54.244;10.074;2023-11-18T15:58:34;6.40;;;5.10;;
18503;SDS011;9381;54.244;10.074;2023-11-18T16:03:35;6.67;;;5.30;;
18503;SDS011;9381;54.244;10.074;2023-11-18T16:08:36;6.95;;;5.20;;
18503;SDS011;9381;54.244;10.074;2023-11-18T16:13:36;7.47;;;5.72;;
18503;SDS011;9381;54.244;10.074;2023-11-18T16:18:36;6.13;;;5.07;;
18503;SDS011;9381;54.244;10.074;2023-11-18T16:23:36;6.72;;;5.57;;
18503;SDS011;9381;54.244;10.074;2023-11-18T16:28:39;6.67;;;5.40;;
18503;SDS011;9381;54.244;10.074;2023-11-18T16:33:39;7.67;;;5.77;;
18503;SDS011;9381;54.244;10.074;2023-11-18T16:38:43;6.70;;;5.83;;
18503;SDS011;9381;54.244;10.074;2023-11-18T16:43:43;7.90;;;5.68;;
18503;SDS011;9381;54.244;10.074;2023-11-18T16:48:43;7.20;;;6.05;;
18503;SDS011;9381;54.244;10.074;2023-11-18T16:53:44;7.68;;;5.78;;
18503;SDS011;9381;54.244;10.074;2023-11-18T16:58:44;8.87;;;5.63;;
18503;SDS011;9381;54.244;10.074;2023-11-18T17:03:44;8.10;;;5.90;;
18503;SDS011;9381;54.244;10.074;2023-11-18T17:08:44;6.18;;;5.20;;
18503;SDS011;9381;54.244;10.074;2023-11-18T17:13:45;8.13;;;5.22;;
18503;SDS011;9381;54.244;10.074;2023-11-18T17:18:45;6.95;;;5.95;;
18503;SDS011;9381;54.244;10.074;2023-11-18T17:23:45;7.93;;;6.07;;
18503;SDS011;9381;54.244;10.074;2023-11-18T17:28:46;7.10;;;6.40;;
18503;SDS011;9381;54.244;10.074;2023-11-18T17:33:46;7.50;;;6.27;;
18503;SDS011;9381;54.244;10.074;2023-11-18T17:38:46;7.18;;;6.05;;
18503;SDS011;9381;54.244;10.074;2023-11-18T17:43:47;8.23;;;6.30;;
18503;SDS011;9381;54.244;10.074;2023-11-18T17:48:48;9.97;;;7.70;;
18503;SDS011;9381;54.244;10.074;2023-11-18T17:53:49;10.47;;;9.37;;
18503;SDS011;9381;54.244;10.074;2023-11-18T17:58:49;8.47;;;6.63;;
18503;SDS011;9381;54.244;10.074;2023-11-18T18:03:51;8.90;;;7.27;;
18503;SDS011;9381;54.244;10.074;2023-11-18T18:08:51;9.57;;;6.53;;
18503;SDS011;9381;54.244;10.074;2023-11-18T18:13:51;7.38;;;6.18;;
18503;SDS011;9381;54.244;10.074;2023-11-18T18:18:52;7.87;;;6.60;;
18503;SDS011;9381;54.244;10.074;2023-11-18T18:23:53;8.43;;;6.93;;
18503;SDS011;9381;54.244;10.074;2023-11-18T18:28:56;8.47;;;7.17;;
18503;SDS011;9381;54.244;10.074;2023-11-18T18:33:56;7.47;;;6.13;;
18503;SDS011;9381;54.244;10.074;2023-11-18T18:38:56;8.85;;;7.47;;
18503;SDS011;9381;54.244;10.074;2023-11-18T18:43:57;22.50;;;16.10;;
18503;SDS011;9381;54.244;10.074;2023-11-18T18:48:57;17.85;;;12.68;;
18503;SDS011;9381;54.244;10.074;2023-11-18T18:53:57;178.23;;;107.03;;
18503;SDS011;9381;54.244;10.074;2023-11-18T18:58:58;16.48;;;11.50;;
18503;SDS011;9381;54.244;10.074;2023-11-18T19:03:58;23.07;;;16.23;;
18503;SDS011;9381;54.244;10.074;2023-11-18T19:08:58;20.73;;;14.18;;
18503;SDS011;9381;54.244;10.074;2023-11-18T19:13:59;12.23;;;9.10;;
18503;SDS011;9381;54.244;10.074;2023-11-18T19:19:00;12.47;;;9.33;;
18503;SDS011;9381;54.244;10.074;2023-11-18T19:24:00;13.35;;;8.85;;
18503;SDS011;9381;54.244;10.074;2023-11-18T19:29:01;14.00;;;9.40;;
18503;SDS011;9381;54.244;10.074;2023-11-18T19:34:03;17.47;;;9.07;;
18503;SDS011;9381;54.244;10.074;2023-11-18T19:39:03;13.77;;;9.87;;
18503;SDS011;9381;54.244;10.074;2023-11-18T19:44:03;17.17;;;10.67;;
18503;SDS011;9381;54.244;10.074;2023-11-18T19:49:04;16.20;;;10.77;;
18503;SDS011;9381;54.244;10.074;2023-11-18T19:54:04;14.88;;;10.32;;
18503;SDS011;9381;54.244;10.074;2023-11-18T19:59:05;15.90;;;10.73;;
18503;SDS011;9381;54.244;10.074;2023-11-18T20:04:06;15.70;;;10.90;;
18503;SDS011;9381;54.244;10.074;2023-11-18T20:09:06;16.17;;;10.70;;
18503;SDS011;9381;54.244;10.074;2023-11-18T20:14:07;15.23;;;10.50;;
18503;SDS011;9381;54.244;10.074;2023-11-18T20:19:08;16.53;;;11.17;;
18503;SDS011;9381;54.244;10.074;2023-11-18T20:24:09;19.17;;;12.40;;
18503;SDS011;9381;54.244;10.074;2023-11-18T20:29:09;15.87;;;11.47;;
18503;SDS011;9381;54.244;10.074;2023-11-18T20:34:11;21.40;;;12.23;;
18503;SDS011;9381;54.244;10.074;2023-11-18T20:39:12;17.37;;;11.33;;
18503;SDS011;9381;54.244;10.074;2023-11-18T20:44:17;17.73;;;11.50;;
18503;SDS011;9381;54.244;10.074;2023-11-18T20:49:18;18.20;;;12.52;;
18503;SDS011;9381;54.244;10.074;2023-11-18T20:54:18;16.90;;;11.83;;
18503;SDS011;9381;54.244;10.074;2023-11-18T20:59:18;19.63;;;12.57;;
18503;SDS011;9381;54.244;10.074;2023-11-18T21:04:19;19.37;;;12.63;;
18503;SDS011;9381;54.244;10.074;2023-11-18T21:09:19;19.38;;;13.23;;
18503;SDS011;9381;54.244;10.074;2023-11-18T21:14:20;18.53;;;12.63;;
18503;SDS011;9381;54.244;10.074;2023-11-18T21:19:21;18.27;;;11.70;;
18503;SDS011;9381;54.244;10.074;2023-11-18T21:24:23;20.23;;;12.83;;
18503;SDS011;9381;54.244;10.074;2023-11-18T21:29:23;19.20;;;12.18;;
18503;SDS011;9381;54.244;10.074;2023-11-18T21:34:23;20.63;;;13.30;;
18503;SDS011;9381;54.244;10.074;2023-11-18T21:39:24;19.30;;;12.30;;
18503;SDS011;9381;54.244;10.074;2023-11-18T21:44:25;16.97;;;12.20;;
18503;SDS011;9381;54.244;10.074;2023-11-18T21:49:26;19.60;;;13.02;;
18503;SDS011;9381;54.244;10.074;2023-11-18T21:54:26;18.08;;;12.35;;
18503;SDS011;9381;54.244;10.074;2023-11-18T21:59:30;18.30;;;13.27;;
18503;SDS011;9381;54.244;10.074;2023-11-18T22:04:30;15.57;;;11.05;;
18503;SDS011;9381;54.244;10.074;2023-11-18T22:09:30;20.33;;;12.63;;
18503;SDS011;9381;54.244;10.074;2023-11-18T22:14:31;16.83;;;11.10;;
18503;SDS011;9381;54.244;10.074;2023-11-18T22:19:33;17.17;;;11.83;;
18503;SDS011;9381;54.244;10.074;2023-11-18T22:24:35;14.93;;;11.47;;
18503;SDS011;9381;54.244;10.074;2023-11-18T22:29:35;18.27;;;12.00;;
18503;SDS011;9381;54.244;10.074;2023-11-18T22:34:37;18.03;;;12.10;;
18503;SDS011;9381;54.244;10.074;2023-11-18T22:39:38;17.27;;;11.77;;
18503;SDS011;9381;54.244;10.074;2023-11-18T22:44:39;17.07;;;11.87;;
18503;SDS011;9381;54.244;10.074;2023-11-18T22:49:48;17.10;;;12.43;;
18503;SDS011;9381;54.244;10.074;2023-11-18T22:54:48;17.23;;;10.87;;
18503;SDS011;9381;54.244;10.074;2023-11-18T22:59:49;17.47;;;11.93;;
18503;SDS011;9381;54.244;10.074;2023-11-18T23:04:50;17.07;;;11.63;;
18503;SDS011;9381;54.244;10.074;2023-11-18T23:09:51;18.13;;;11.95;;
18503;SDS011;9381;54.244;10.074;2023-11-18T23:14:51;18.17;;;12.27;;
18503;SDS011;9381;54.244;10.074;2023-11-18T23:19:52;16.87;;;12.50;;
18503;SDS011;9381;54.244;10.074;2023-11-18T23:24:52;15.48;;;11.25;;
18503;SDS011;9381;54.244;10.074;2023-11-18T23:29:53;16.20;;;12.07;;
18503;SDS011;9381;54.244;10.074;2023-11-18T23:34:53;17.85;;;11.63;;
18503;SDS011;9381;54.244;10.074;2023-11-18T23:39:54;16.67;;;12.53;;
18503;SDS011;9381;54.244;10.074;2023-11-18T23:44:56;17.67;;;11.77;;
18503;SDS011;9381;54.244;10.074;2023-11-18T23:49:56;15.85;;;11.23;;
18503;SDS011;9381;54.244;10.074;2023-11-18T23:54:57;19.13;;;11.67;;
18503;SDS011;9381;54.244;10.074;2023-11-18T23:59:57;13.47;;;10.43;;
